Time;durP1;ratioP1;P1;durP2;ratioP2;P2;SDS_P1;SDS_P2;PMS_P1;PMS_P2;Temp;Humidity;BMP_temperature;BMP_pressure;BME280_temperature;BME280_humidity;BME280_pressure;Samples;Min_cycle;Max_cycle;Signal;HPM_P1;HPM_P2
2024/01/07 00:01:12;;;;;;;20.00;15.47;;;1.70;99.90;;;;;;4998908;28;20480;-69
2024/01/07 00:03:42;;;;;;;24.13;17.37;;;1.80;99.90;;;;;;4998751;28;20962;-70
2024/01/07 00:06:11;;;;;;;27.37;17.90;;;1.70;99.90;;;;;;4999007;28;20457;-70
2024/01/07 00:08:39;;;;;;;23.33;16.40;;;1.70;99.90;;;;;;4998518;28;20481;-70
2024/01/07 00:11:06;;;;;;;23.33;17.67;;;1.80;99.90;;;;;;4998898;28;20517;-70
2024/01/07 00:13:33;;;;;;;31.10;19.50;;;1.60;99.90;;;;;;4997946;28;20457;-70
2024/01/07 00:16:01;;;;;;;32.27;21.57;;;1.60;99.90;;;;;;4998830;28;20469;-70
2024/01/07 00:18:28;;;;;;;38.03;23.43;;;1.60;99.90;;;;;;4998202;28;20500;-70
2024/01/07 00:20:56;;;;;;;38.23;25.67;;;1.60;99.90;;;;;;4998440;28;20438;-70
2024/01/07 00:23:25;;;;;;;36.23;24.07;;;1.60;99.90;;;;;;4998216;28;20472;-70
2024/01/07 00:25:52;;;;;;;36.77;22.57;;;1.60;99.90;;;;;;4998079;28;20467;-70
2024/01/07 00:28:20;;;;;;;28.63;19.63;;;1.60;99.90;;;;;;4998688;28;20461;-69
2024/01/07 00:30:47;;;;;;;22.93;16.77;;;1.60;99.90;;;;;;4998085;28;20435;-69
2024/01/07 00:33:14;;;;;;;26.17;17.13;;;1.60;99.90;;;;;;4997845;28;20925;-69
2024/01/07 00:35:42;;;;;;;23.90;16.27;;;1.60;99.90;;;;;;4998354;28;20465;-69
2024/01/07 00:38:09;;;;;;;20.40;15.60;;;1.60;99.90;;;;;;4998425;28;20918;-69
2024/01/07 00:40:39;;;;;;;28.40;19.00;;;1.70;99.90;;;;;;4997883;28;20826;-69
2024/01/07 00:43:06;;;;;;;31.87;21.20;;;1.70;99.90;;;;;;4997786;28;20887;-69
2024/01/07 00:45:33;;;;;;;30.77;22.13;;;1.80;99.90;;;;;;4998314;28;20461;-68
2024/01/07 00:48:01;;;;;;;30.20;22.37;;;1.70;99.90;;;;;;4998020;28;20465;-68
2024/01/07 00:50:28;;;;;;;31.20;22.23;;;1.70;99.90;;;;;;4997663;28;20473;-68
2024/01/07 00:52:56;;;;;;;28.03;20.17;;;1.80;99.90;;;;;;4998298;28;20559;-67
2024/01/07 00:55:23;;;;;;;29.50;21.03;;;1.70;99.90;;;;;;4997216;28;20469;-68
2024/01/07 00:57:52;;;;;;;31.30;20.80;;;1.70;99.90;;;;;;5011345;28;20468;-68
2024/01/07 01:00:20;;;;;;;24.20;18.10;;;1.60;99.90;;;;;;5015754;28;20800;-68
2024/01/07 01:02:48;;;;;;;29.03;19.97;;;1.70;99.90;;;;;;5016472;28;20460;-68
2024/01/07 01:05:15;;;;;;;33.20;22.43;;;1.70;99.90;;;;;;5016463;28;20434;-68
2024/01/07 01:07:42;;;;;;;28.30;21.80;;;1.70;99.90;;;;;;5015915;28;20886;-68
2024/01/07 01:10:10;;;;;;;22.73;17.27;;;1.70;99.90;;;;;;5015794;28;20460;-68
2024/01/07 01:12:37;;;;;;;22.00;18.13;;;1.70;99.90;;;;;;5015770;28;20735;-69
2024/01/07 01:15:06;;;;;;;21.17;16.63;;;1.60;99.90;;;;;;5016079;28;20974;-69
2024/01/07 01:17:34;;;;;;;22.87;17.70;;;1.60;99.90;;;;;;5015971;28;20441;-69
2024/01/07 01:20:01;;;;;;;21.20;15.27;;;1.70;99.90;;;;;;5015502;28;20517;-69
2024/01/07 01:22:28;;;;;;;23.43;16.63;;;1.80;99.90;;;;;;5017313;28;20522;-69
2024/01/07 01:24:56;;;;;;;21.43;17.73;;;1.80;99.90;;;;;;5017091;28;20824;-70
2024/01/07 01:27:23;;;;;;;21.73;16.97;;;1.80;99.90;;;;;;5017181;28;20464;-69
2024/01/07 01:29:50;;;;;;;20.20;16.00;;;1.80;99.90;;;;;;5017242;28;20431;-69
2024/01/07 01:32:19;;;;;;;21.10;16.37;;;1.80;99.90;;;;;;5017539;28;20889;-70
2024/01/07 01:34:47;;;;;;;23.00;16.93;;;1.70;99.90;;;;;;5016871;28;20575;-70
2024/01/07 01:37:14;;;;;;;22.80;18.30;;;1.70;99.90;;;;;;5016944;28;20496;-69
2024/01/07 01:39:42;;;;;;;24.20;18.03;;;1.70;99.90;;;;;;5017385;28;20924;-69
2024/01/07 01:42:09;;;;;;;24.43;18.03;;;1.60;99.90;;;;;;5017173;28;20728;-70
2024/01/07 01:44:37;;;;;;;25.33;18.27;;;1.50;99.90;;;;;;5016908;28;20806;-70
2024/01/07 01:47:06;;;;;;;25.87;18.93;;;1.50;99.90;;;;;;5017048;28;20487;-70
2024/01/07 01:49:37;;;;;;;27.47;20.23;;;1.50;99.90;;;;;;5016903;28;20460;-70
2024/01/07 01:52:06;;;;;;;26.27;19.30;;;1.50;99.90;;;;;;5017402;28;20778;-70
2024/01/07 01:54:33;;;;;;;26.40;19.80;;;1.50;99.90;;;;;;5016597;28;20464;-70
2024/01/07 01:57:01;;;;;;;27.73;18.80;;;1.60;99.90;;;;;;5020132;28;20856;-70
2024/01/07 01:59:34;;;;;;;24.97;17.97;;;1.50;99.90;;;;;;5020844;28;20492;-69
2024/01/07 02:02:02;;;;;;;27.40;18.67;;;1.60;99.90;;;;;;5020879;28;20439;-70
2024/01/07 02:04:29;;;;;;;24.70;18.50;;;1.60;99.90;;;;;;5020057;28;20474;-69
2024/01/07 02:06:58;;;;;;;21.23;16.37;;;1.50;99.90;;;;;;5020562;28;20468;-68
2024/01/07 02:09:25;;;;;;;19.23;15.00;;;1.40;99.90;;;;;;5020409;28;20462;-67
2024/01/07 02:12:03;;;;;;;19.67;14.63;;;1.50;99.90;;;;;;5020897;28;20464;-67
2024/01/07 02:14:30;;;;;;;19.20;15.53;;;1.40;99.90;;;;;;5020247;28;20785;-67
2024/01/07 02:16:58;;;;;;;22.30;16.23;;;1.40;99.90;;;;;;5020292;28;21016;-67
2024/01/07 02:19:25;;;;;;;24.67;17.20;;;1.50;99.90;;;;;;5020369;28;20491;-67
2024/01/07 02:21:52;;;;;;;30.73;18.53;;;1.50;99.90;;;;;;5019920;28;20546;-67
2024/01/07 02:24:21;;;;;;;26.60;19.03;;;1.50;99.90;;;;;;5020175;28;20460;-68
2024/01/07 02:26:48;;;;;;;23.73;17.90;;;1.60;99.90;;;;;;5020002;28;20460;-68
2024/01/07 02:29:16;;;;;;;25.00;17.83;;;1.50;99.90;;;;;;5020379;28;20802;-68
2024/01/07 02:31:43;;;;;;;24.30;18.67;;;1.40;99.90;;;;;;5020349;28;20904;-68
2024/01/07 02:34:11;;;;;;;25.90;18.23;;;1.40;99.90;;;;;;5020420;28;20474;-68
2024/01/07 02:36:38;;;;;;;26.50;19.63;;;1.40;99.90;;;;;;5019782;28;20522;-69
2024/01/07 02:39:05;;;;;;;25.60;17.63;;;1.30;99.90;;;;;;5020059;28;20496;-68
2024/01/07 02:41:34;;;;;;;25.33;17.50;;;1.40;99.90;;;;;;5019882;28;20461;-69
2024/01/07 02:44:01;;;;;;;28.97;17.20;;;1.40;99.90;;;;;;5020192;28;20478;-69
2024/01/07 02:46:28;;;;;;;27.53;19.20;;;1.50;99.90;;;;;;5019922;28;20566;-69
2024/01/07 02:48:56;;;;;;;27.67;19.20;;;1.40;99.90;;;;;;5019577;28;20506;-69
2024/01/07 02:51:23;;;;;;;25.40;18.70;;;1.50;99.90;;;;;;5019632;28;20522;-69
2024/01/07 02:53:49;;;;;;;29.80;18.67;;;1.50;99.90;;;;;;5019656;28;20475;-69
2024/01/07 02:56:16;;;;;;;27.10;19.53;;;1.40;99.90;;;;;;5020034;28;20462;-69
2024/01/07 02:58:45;;;;;;;27.30;18.90;;;1.40;99.90;;;;;;5018905;28;20522;-69
2024/01/07 03:01:12;;;;;;;28.77;20.70;;;1.30;99.90;;;;;;5019530;28;20488;-69
2024/01/07 03:03:40;;;;;;;29.60;20.80;;;1.30;99.90;;;;;;5019723;28;20503;-70
2024/01/07 03:06:08;;;;;;;30.97;19.80;;;1.30;99.90;;;;;;5019066;28;20900;-70
2024/01/07 03:08:35;;;;;;;31.17;19.50;;;1.10;99.90;;;;;;5019233;28;20779;-70
2024/01/07 03:11:06;;;;;;;31.07;21.17;;;1.10;99.90;;;;;;5019352;28;20856;-70
2024/01/07 03:13:33;;;;;;;37.07;22.40;;;1.10;99.90;;;;;;5019408;28;20889;-70
2024/01/07 03:16:02;;;;;;;32.67;22.10;;;1.00;99.90;;;;;;5019331;28;20452;-70
2024/01/07 03:18:29;;;;;;;30.57;21.33;;;1.00;99.90;;;;;;5019093;28;20456;-70
2024/01/07 03:20:57;;;;;;;30.27;20.60;;;1.10;99.90;;;;;;5018606;28;20498;-70
2024/01/07 03:23:24;;;;;;;31.20;21.50;;;1.20;99.90;;;;;;5019030;28;20506;-70
2024/01/07 03:25:51;;;;;;;30.23;22.07;;;1.10;99.90;;;;;;5018596;28;20495;-70
2024/01/07 03:28:19;;;;;;;29.67;20.03;;;1.00;99.90;;;;;;5018947;28;20504;-70
2024/01/07 03:30:46;;;;;;;31.53;21.77;;;0.90;99.90;;;;;;5018799;28;20499;-70
2024/01/07 03:33:15;;;;;;;28.03;21.33;;;0.90;99.90;;;;;;5018795;28;20503;-70
2024/01/07 03:35:42;;;;;;;29.77;20.90;;;1.00;99.90;;;;;;5018950;28;20562;-70
2024/01/07 03:38:09;;;;;;;27.00;20.83;;;1.00;99.90;;;;;;5018965;28;20496;-70
2024/01/07 03:40:37;;;;;;;29.50;20.67;;;1.00;99.90;;;;;;5018323;28;20556;-69
2024/01/07 03:43:04;;;;;;;26.00;18.90;;;1.10;99.90;;;;;;5018518;28;20566;-69
2024/01/07 03:45:32;;;;;;;26.43;20.37;;;1.10;99.90;;;;;;5018746;28;20464;-70
2024/01/07 03:47:59;;;;;;;25.70;18.60;;;1.10;99.90;;;;;;5018719;28;20474;-69
2024/01/07 03:50:28;;;;;;;28.53;20.27;;;1.10;99.90;;;;;;5018356;28;20460;-69
2024/01/07 03:52:55;;;;;;;28.73;19.77;;;1.10;99.90;;;;;;5018423;28;20922;-68
2024/01/07 03:55:22;;;;;;;28.87;19.57;;;1.00;99.90;;;;;;5018635;28;20464;-68
2024/01/07 03:57:50;;;;;;;28.20;20.10;;;0.90;99.90;;;;;;5018655;28;20438;-68
2024/01/07 04:00:17;;;;;;;26.57;19.20;;;0.80;99.90;;;;;;5018520;28;20531;-69
2024/01/07 04:02:45;;;;;;;29.83;21.10;;;0.90;99.90;;;;;;5018074;28;20491;-68
2024/01/07 04:05:12;;;;;;;27.23;19.10;;;1.00;99.90;;;;;;5018685;28;20446;-68
2024/01/07 04:07:41;;;;;;;26.67;18.57;;;1.00;99.90;;;;;;5018350;28;20815;-68
2024/01/07 04:10:09;;;;;;;30.00;20.13;;;1.00;99.90;;;;;;5018335;28;20461;-68
2024/01/07 04:12:37;;;;;;;30.33;21.67;;;1.00;99.90;;;;;;5018129;28;20467;-69
2024/01/07 04:15:05;;;;;;;30.03;21.43;;;1.00;99.90;;;;;;5018168;28;20929;-68
2024/01/07 04:17:32;;;;;;;30.33;21.60;;;0.90;99.90;;;;;;5017774;28;20852;-69
2024/01/07 04:20:00;;;;;;;29.50;20.87;;;1.00;99.90;;;;;;5017828;28;21033;-69
2024/01/07 04:22:27;;;;;;;26.57;20.83;;;1.00;99.90;;;;;;5017380;28;20460;-69
2024/01/07 04:24:55;;;;;;;29.10;21.20;;;0.90;99.90;;;;;;5017749;28;21021;-69
2024/01/07 04:27:24;;;;;;;30.17;21.53;;;0.80;99.90;;;;;;5018018;28;20482;-69
2024/01/07 04:29:51;;;;;;;30.00;21.07;;;0.80;99.90;;;;;;5017848;28;20479;-69
2024/01/07 04:32:19;;;;;;;28.17;20.60;;;0.80;99.90;;;;;;5017865;28;20468;-70
2024/01/07 04:34:46;;;;;;;27.63;20.63;;;0.70;99.90;;;;;;5017750;28;20908;-69
2024/01/07 04:37:14;;;;;;;24.33;19.00;;;0.70;99.90;;;;;;5017883;28;20822;-69
2024/01/07 04:39:41;;;;;;;26.83;20.33;;;0.80;99.90;;;;;;5017426;28;20531;-71
2024/01/07 04:42:10;;;;;;;24.77;20.17;;;0.70;99.90;;;;;;5017880;28;20529;-70
2024/01/07 04:44:37;;;;;;;28.57;21.40;;;0.80;99.90;;;;;;5017999;28;20539;-71
2024/01/07 04:47:04;;;;;;;29.97;21.67;;;0.70;99.90;;;;;;5017458;28;20466;-70
2024/01/07 04:49:32;;;;;;;26.13;20.23;;;0.70;99.90;;;;;;5017635;28;20854;-71
2024/01/07 04:51:59;;;;;;;31.63;22.53;;;0.80;99.90;;;;;;5017709;28;20470;-71
2024/01/07 04:54:26;;;;;;;29.90;19.90;;;0.80;99.90;;;;;;5017621;28;20464;-71
2024/01/07 04:56:53;;;;;;;32.07;21.97;;;0.90;99.90;;;;;;5017493;28;20573;-72
2024/01/07 04:59:22;;;;;;;31.50;21.33;;;0.80;99.90;;;;;;5017274;28;20470;-72
2024/01/07 05:01:49;;;;;;;28.10;21.30;;;0.80;99.90;;;;;;5017502;28;20487;-72
2024/01/07 05:04:16;;;;;;;33.77;23.60;;;0.80;99.90;;;;;;5017616;28;20932;-72
2024/01/07 05:06:45;;;;;;;31.27;20.97;;;0.80;99.90;;;;;;5017321;28;20470;-72
2024/01/07 05:09:13;;;;;;;32.30;22.60;;;0.80;99.90;;;;;;5017510;28;20525;-72
2024/01/07 05:11:41;;;;;;;31.33;23.17;;;0.70;99.90;;;;;;5017356;28;20484;-72
2024/01/07 05:14:08;;;;;;;30.40;22.47;;;0.80;99.90;;;;;;5017615;28;20460;-72
2024/01/07 05:16:37;;;;;;;29.97;19.83;;;0.80;99.90;;;;;;5017358;28;20556;-74
2024/01/07 05:19:04;;;;;;;32.00;23.53;;;0.60;99.90;;;;;;5017721;28;20543;-72
2024/01/07 05:21:31;;;;;;;32.00;22.27;;;0.70;99.90;;;;;;5017403;28;20538;-72
2024/01/07 05:23:58;;;;;;;31.70;22.80;;;0.70;99.90;;;;;;5017954;28;20498;-72
2024/01/07 05:26:25;;;;;;;33.80;22.97;;;0.60;99.90;;;;;;5017871;28;20467;-72
2024/01/07 05:28:53;;;;;;;29.00;20.93;;;0.70;99.90;;;;;;5019704;28;20461;-71
2024/01/07 05:31:20;;;;;;;32.80;21.00;;;0.60;99.90;;;;;;5024700;28;20466;-71
2024/01/07 05:33:49;;;;;;;30.83;22.50;;;0.50;99.90;;;;;;5024418;28;20442;-71
2024/01/07 05:36:16;;;;;;;31.97;22.43;;;0.50;99.90;;;;;;5024172;28;20948;-71
2024/01/07 05:38:43;;;;;;;30.23;22.27;;;0.60;99.90;;;;;;5024317;28;20464;-71
2024/01/07 05:41:11;;;;;;;30.20;21.47;;;0.70;99.90;;;;;;5023414;28;20790;-72
2024/01/07 05:43:38;;;;;;;32.10;22.70;;;0.70;99.90;;;;;;5023589;28;20459;-71
2024/01/07 05:46:05;;;;;;;31.63;22.10;;;0.70;99.90;;;;;;5022986;28;20979;-70
2024/01/07 05:48:43;;;;;;;28.47;20.20;;;0.70;99.90;;;;;;5023237;28;20496;-70
2024/01/07 05:51:12;;;;;;;26.43;19.20;;;0.60;99.90;;;;;;5023449;28;20443;-69
2024/01/07 05:53:39;;;;;;;27.03;18.90;;;0.60;99.90;;;;;;5024141;28;20537;-70
2024/01/07 05:56:06;;;;;;;25.00;18.73;;;0.70;99.90;;;;;;5024903;28;20464;-69
2024/01/07 05:58:34;;;;;;;25.03;18.57;;;0.60;99.90;;;;;;5027553;28;20733;-69
2024/01/07 06:01:01;;;;;;;25.03;18.90;;;0.50;99.90;;;;;;5026445;28;20492;-69
2024/01/07 06:03:28;;;;;;;30.03;21.60;;;0.60;99.90;;;;;;5027023;28;20467;-68
2024/01/07 06:05:55;;;;;;;25.53;18.83;;;0.70;99.90;;;;;;5024683;28;20464;-70
2024/01/07 06:08:24;;;;;;;26.87;18.90;;;0.70;99.90;;;;;;5024058;28;20498;-68
2024/01/07 06:10:51;;;;;;;28.20;20.03;;;0.50;99.90;;;;;;5025122;28;20507;-68
2024/01/07 06:13:19;;;;;;;27.03;20.57;;;0.60;99.90;;;;;;5025462;28;20848;-68
2024/01/07 06:15:46;;;;;;;28.07;20.23;;;0.60;99.90;;;;;;5024645;28;20463;-68
2024/01/07 06:18:13;;;;;;;26.97;20.53;;;0.60;99.90;;;;;;5025752;28;20464;-67
2024/01/07 06:20:41;;;;;;;26.93;20.27;;;0.50;99.90;;;;;;5025412;28;20515;-67
2024/01/07 06:23:08;;;;;;;27.90;20.03;;;0.50;99.90;;;;;;5025813;28;20463;-68
2024/01/07 06:25:36;;;;;;;27.33;19.77;;;0.50;99.90;;;;;;5023596;28;20550;-67
2024/01/07 06:28:04;;;;;;;27.40;20.33;;;0.50;99.90;;;;;;5024388;28;20496;-67
2024/01/07 06:30:31;;;;;;;24.83;19.77;;;0.60;99.90;;;;;;5023281;28;20996;-67
2024/01/07 06:32:58;;;;;;;26.37;19.77;;;0.60;99.90;;;;;;5022238;28;20526;-67
2024/01/07 06:35:26;;;;;;;28.10;20.13;;;0.60;99.90;;;;;;5022778;28;20459;-67
2024/01/07 06:37:53;;;;;;;26.97;19.67;;;0.60;99.90;;;;;;5021644;28;20530;-67
2024/01/07 06:40:20;;;;;;;25.53;19.97;;;0.60;99.90;;;;;;5019835;28;20484;-67
2024/01/07 06:42:49;;;;;;;28.60;19.47;;;0.60;99.90;;;;;;5020140;28;20458;-66
2024/01/07 06:45:16;;;;;;;26.87;19.47;;;0.50;99.90;;;;;;5019843;28;20554;-67
2024/01/07 06:47:44;;;;;;;27.53;19.80;;;0.50;99.90;;;;;;5020253;28;20913;-67
2024/01/07 06:50:11;;;;;;;26.90;19.63;;;0.50;99.90;;;;;;5019288;28;20752;-67
2024/01/07 06:52:38;;;;;;;29.90;20.83;;;0.50;99.90;;;;;;5019655;28;20491;-67
2024/01/07 06:55:07;;;;;;;29.60;22.23;;;0.50;99.90;;;;;;5019342;28;20828;-66
2024/01/07 06:57:34;;;;;;;26.50;19.83;;;0.50;99.90;;;;;;5020818;28;20510;-66
2024/01/07 07:00:04;;;;;;;29.10;22.73;;;0.50;99.90;;;;;;5020888;28;20467;-66
2024/01/07 07:02:31;;;;;;;27.70;20.90;;;0.50;99.90;;;;;;5020295;28;20943;-66
2024/01/07 07:04:58;;;;;;;34.33;22.47;;;0.50;99.90;;;;;;5020557;28;20460;-66
2024/01/07 07:07:26;;;;;;;31.23;22.60;;;0.50;99.90;;;;;;5020206;28;20506;-66
2024/01/07 07:09:53;;;;;;;30.00;21.50;;;0.50;99.90;;;;;;5020659;28;20460;-65
2024/01/07 07:12:21;;;;;;;28.77;20.80;;;0.50;99.90;;;;;;5020273;28;20828;-65
2024/01/07 07:14:49;;;;;;;28.20;20.77;;;0.50;99.90;;;;;;5020344;28;20506;-66
2024/01/07 07:17:18;;;;;;;30.60;21.60;;;0.40;99.90;;;;;;5020534;28;20470;-66
2024/01/07 07:19:45;;;;;;;34.07;22.60;;;0.40;99.90;;;;;;5018989;28;20506;-66
2024/01/07 07:22:12;;;;;;;29.10;20.67;;;0.40;99.90;;;;;;5017108;28;20574;-66
2024/01/07 07:24:42;;;;;;;31.93;23.57;;;0.40;99.90;;;;;;5019269;28;20546;-66
2024/01/07 07:27:09;;;;;;;33.70;22.70;;;0.40;99.90;;;;;;5007617;28;20540;-66
2024/01/07 07:29:36;;;;;;;31.00;21.30;;;0.50;99.90;;;;;;5000160;28;20465;-66
2024/01/07 07:32:04;;;;;;;32.67;22.30;;;0.40;99.90;;;;;;4999873;28;20464;-66
2024/01/07 07:34:33;;;;;;;31.33;24.40;;;0.30;99.90;;;;;;4999732;28;20468;-66
2024/01/07 07:37:00;;;;;;;32.63;24.20;;;0.40;99.90;;;;;;4998917;28;20464;-67
2024/01/07 07:39:27;;;;;;;34.03;23.40;;;0.40;99.90;;;;;;4999691;28;20464;-66
2024/01/07 07:41:55;;;;;;;30.87;24.57;;;0.40;99.90;;;;;;4999549;28;20583;-67
2024/01/07 07:44:22;;;;;;;36.60;27.37;;;0.40;99.90;;;;;;5013091;28;20463;-67
2024/01/07 07:46:50;;;;;;;31.70;24.73;;;0.40;99.90;;;;;;5018740;28;20525;-67
2024/01/07 07:49:17;;;;;;;37.93;25.17;;;0.40;99.90;;;;;;5018903;28;20471;-67
2024/01/07 07:51:46;;;;;;;34.77;28.80;;;0.40;99.90;;;;;;5019251;28;20506;-67
2024/01/07 07:54:13;;;;;;;33.60;27.23;;;0.40;99.90;;;;;;5018231;28;20529;-66
2024/01/07 07:56:40;;;;;;;34.03;25.03;;;0.40;99.90;;;;;;5017246;28;20504;-66
2024/01/07 07:59:08;;;;;;;27.20;21.30;;;0.40;99.90;;;;;;5016647;28;20736;-67
2024/01/07 08:01:36;;;;;;;26.37;19.40;;;0.40;99.90;;;;;;5017342;28;20834;-66
2024/01/07 08:04:05;;;;;;;27.47;20.80;;;0.30;99.90;;;;;;5017721;28;20466;-67
2024/01/07 08:06:32;;;;;;;25.67;18.80;;;0.30;99.90;;;;;;5017537;28;20562;-67
2024/01/07 08:09:01;;;;;;;26.53;20.20;;;0.30;99.90;;;;;;5017943;28;20442;-67
2024/01/07 08:11:29;;;;;;;26.00;20.73;;;0.40;99.90;;;;;;5018379;28;20864;-67
2024/01/07 08:13:57;;;;;;;25.23;19.00;;;0.40;99.90;;;;;;5017003;28;20451;-67
2024/01/07 08:16:24;;;;;;;22.10;17.67;;;0.40;99.90;;;;;;5016322;28;20668;-67
2024/01/07 08:18:52;;;;;;;24.70;17.20;;;0.30;99.90;;;;;;5016303;28;20562;-67
2024/01/07 08:21:20;;;;;;;24.33;17.60;;;0.30;99.90;;;;;;5016677;28;20531;-67
2024/01/07 08:23:47;;;;;;;21.07;16.80;;;0.40;99.90;;;;;;5017250;28;20753;-68
2024/01/07 08:26:19;;;;;;;23.40;18.30;;;0.40;99.90;;;;;;5016732;28;20460;-67
2024/01/07 08:28:47;;;;;;;23.13;16.93;;;0.50;99.90;;;;;;5017599;28;20466;-67
2024/01/07 08:31:14;;;;;;;21.60;16.77;;;0.50;99.90;;;;;;5017878;28;20509;-68
2024/01/07 08:33:41;;;;;;;21.47;15.90;;;0.50;99.90;;;;;;5018227;28;20437;-67
2024/01/07 08:36:09;;;;;;;19.13;15.87;;;0.30;99.90;;;;;;5018056;28;20869;-67
2024/01/07 08:38:36;;;;;;;18.17;14.40;;;0.30;99.90;;;;;;5017716;28;20475;-67
2024/01/07 08:41:04;;;;;;;18.10;14.20;;;0.20;99.90;;;;;;5017344;28;20474;-67
2024/01/07 08:43:33;;;;;;;15.13;12.83;;;0.30;99.90;;;;;;5017938;28;20449;-67
2024/01/07 08:46:00;;;;;;;15.07;13.10;;;0.20;99.90;;;;;;5018063;28;20571;-67
2024/01/07 08:48:27;;;;;;;14.47;12.90;;;0.20;99.90;;;;;;5017428;28;20526;-67
2024/01/07 08:50:55;;;;;;;15.23;13.63;;;0.20;99.90;;;;;;5017574;28;20470;-67
2024/01/07 08:53:22;;;;;;;17.53;14.07;;;0.20;99.90;;;;;;5017465;28;20470;-67
2024/01/07 08:55:52;;;;;;;16.00;13.73;;;0.20;99.90;;;;;;5017694;28;20434;-67
2024/01/07 08:58:19;;;;;;;15.80;12.80;;;0.10;99.90;;;;;;5017602;28;20462;-67
2024/01/07 09:00:48;;;;;;;17.70;14.00;;;0.10;99.90;;;;;;5017302;28;20817;-67
2024/01/07 09:03:16;;;;;;;18.77;13.83;;;0.10;99.90;;;;;;5017451;28;20522;-66
2024/01/07 09:05:43;;;;;;;15.90;12.33;;;0.10;99.90;;;;;;5016792;28;20529;-67
2024/01/07 09:08:14;;;;;;;19.03;14.77;;;0.00;99.90;;;;;;5017315;28;20510;-66
2024/01/07 09:10:41;;;;;;;18.73;15.53;;;-0.10;99.90;;;;;;5017457;28;20463;-66
2024/01/07 09:13:08;;;;;;;20.67;17.53;;;-0.10;99.90;;;;;;5017446;28;20477;-64
2024/01/07 09:15:36;;;;;;;19.00;16.60;;;0.00;99.90;;;;;;5017766;28;20469;-64
2024/01/07 09:18:05;;;;;;;21.70;18.00;;;0.00;99.90;;;;;;5016337;28;20458;-66
2024/01/07 09:20:33;;;;;;;20.97;18.53;;;0.00;99.90;;;;;;5016034;28;20828;-65
2024/01/07 09:23:00;;;;;;;20.63;17.17;;;0.00;99.90;;;;;;5016650;28;20473;-65
2024/01/07 09:25:29;;;;;;;22.83;17.87;;;-0.10;99.90;;;;;;5016422;28;20538;-66
2024/01/07 09:27:56;;;;;;;20.90;18.00;;;-0.10;99.90;;;;;;5016921;28;20811;-65
2024/01/07 09:30:23;;;;;;;23.47;18.90;;;0.00;99.90;;;;;;5016719;28;20526;-65
2024/01/07 09:32:51;;;;;;;22.00;18.53;;;0.00;99.90;;;;;;5017552;28;20757;-64
2024/01/07 09:35:20;;;;;;;22.10;18.30;;;0.00;99.90;;;;;;5010592;28;20460;-66
2024/01/07 09:37:47;;;;;;;22.67;17.27;;;-0.10;99.90;;;;;;4996602;28;20572;-66
2024/01/07 09:40:19;;;;;;;22.90;18.13;;;-0.10;99.90;;;;;;4997535;28;20472;-65
2024/01/07 09:42:47;;;;;;;23.63;19.00;;;-0.10;99.90;;;;;;4997515;28;20569;-66
2024/01/07 09:45:15;;;;;;;21.13;17.33;;;-0.10;99.90;;;;;;4997866;28;20472;-66
2024/01/07 09:47:44;;;;;;;22.73;18.30;;;-0.10;99.90;;;;;;4998241;28;20504;-65
2024/01/07 09:50:13;;;;;;;22.40;18.80;;;-0.10;99.90;;;;;;4998483;28;20893;-65
2024/01/07 09:52:47;;;;;;;21.53;19.23;;;-0.10;99.90;;;;;;4997997;28;20563;-65
2024/01/07 09:55:23;;;;;;;19.87;16.70;;;-0.20;99.90;;;;;;4999003;28;20446;-66
2024/01/07 09:57:51;;;;;;;19.90;16.30;;;-0.20;99.90;;;;;;4999030;28;20960;-65
2024/01/07 10:00:19;;;;;;;19.43;17.00;;;-0.20;99.90;;;;;;4998738;28;20469;-67
2024/01/07 10:02:46;;;;;;;23.43;18.00;;;-0.20;99.90;;;;;;4998778;28;20473;-65
2024/01/07 10:05:14;;;;;;;20.10;16.80;;;-0.20;99.90;;;;;;4997870;28;20471;-65
2024/01/07 10:07:43;;;;;;;19.60;15.40;;;-0.20;99.90;;;;;;4998141;28;20467;-65
2024/01/07 10:10:18;;;;;;;19.80;14.97;;;-0.30;99.90;;;;;;4997465;28;20509;-65
2024/01/07 10:12:47;;;;;;;19.33;15.50;;;-0.30;99.90;;;;;;4997207;28;20468;-65
2024/01/07 10:15:14;;;;;;;22.77;16.17;;;-0.20;99.90;;;;;;4998280;28;20472;-64
2024/01/07 10:17:43;;;;;;;15.50;13.67;;;-0.30;99.90;;;;;;5001246;28;20492;-66
2024/01/07 10:20:12;;;;;;;19.70;14.93;;;-0.20;99.90;;;;;;5002346;28;20453;-65
2024/01/07 10:22:47;;;;;;;17.70;13.83;;;-0.20;99.90;;;;;;5002215;28;20848;-66
2024/01/07 10:25:16;;;;;;;16.50;13.67;;;-0.20;99.90;;;;;;5001879;28;20497;-65
2024/01/07 10:27:44;;;;;;;15.30;12.63;;;-0.20;99.90;;;;;;5002452;28;20912;-67
2024/01/07 10:30:13;;;;;;;17.63;14.20;;;-0.20;99.90;;;;;;5002759;28;20470;-65
2024/01/07 10:32:43;;;;;;;16.40;13.33;;;-0.20;99.90;;;;;;5002455;28;20460;-65
2024/01/07 10:35:15;;;;;;;18.63;13.90;;;-0.10;99.90;;;;;;5002498;28;20463;-65
2024/01/07 10:37:45;;;;;;;15.83;12.90;;;-0.10;99.90;;;;;;5002471;28;20605;-65
2024/01/07 10:40:14;;;;;;;16.10;13.27;;;-0.10;99.90;;;;;;5002673;28;20468;-65
2024/01/07 10:42:44;;;;;;;15.67;12.10;;;-0.20;99.90;;;;;;5002735;28;20565;-65
2024/01/07 10:45:11;;;;;;;19.87;13.90;;;-0.30;99.90;;;;;;5002078;28;20475;-65
2024/01/07 10:47:42;;;;;;;17.33;13.27;;;-0.20;99.90;;;;;;5002460;28;20893;-66
2024/01/07 10:50:15;;;;;;;15.87;12.03;;;-0.20;99.90;;;;;;5003083;28;20471;-65
2024/01/07 10:52:49;;;;;;;15.33;12.80;;;-0.20;99.90;;;;;;5002439;28;20487;-65
2024/01/07 10:55:19;;;;;;;18.50;13.27;;;-0.20;99.90;;;;;;5002186;28;20465;-66
2024/01/07 10:57:49;;;;;;;16.33;14.03;;;-0.30;99.90;;;;;;5002585;28;20934;-66
2024/01/07 11:00:19;;;;;;;16.97;13.40;;;-0.30;99.90;;;;;;5021186;28;20469;-66
2024/01/07 11:03:00;;;;;;;16.87;13.40;;;-0.50;99.90;;;;;;5020525;28;20517;-70
2024/01/07 11:05:38;;;;;;;17.60;12.77;;;-0.50;99.90;;;;;;5019657;28;20466;-69
2024/01/07 11:08:14;;;;;;;15.43;11.97;;;-0.50;99.90;;;;;;5020633;28;20468;-70
2024/01/07 11:10:46;;;;;;;13.50;11.00;;;-0.50;99.90;;;;;;5021998;28;20472;-69
2024/01/07 11:13:33;;;;;;;16.00;12.20;;;-0.50;99.90;;;;;;5019134;28;20814;-69
2024/01/07 11:16:01;;;;;;;13.40;10.67;;;-0.50;99.90;;;;;;5019748;28;20465;-67
2024/01/07 11:18:33;;;;;;;13.70;11.10;;;-0.40;99.90;;;;;;5021291;28;20563;-69
2024/01/07 11:21:03;;;;;;;12.83;10.30;;;-0.40;99.90;;;;;;5018129;28;20695;-69
2024/01/07 11:23:36;;;;;;;14.27;11.27;;;-0.40;99.90;;;;;;5017585;28;20994;-69
2024/01/07 11:26:04;;;;;;;15.80;11.37;;;-0.30;99.90;;;;;;5018257;28;20593;-67
2024/01/07 11:28:52;;;;;;;13.00;9.93;;;-0.30;99.90;;;;;;5018873;28;20613;-68
2024/01/07 11:31:21;;;;;;;13.30;9.73;;;-0.40;99.90;;;;;;5016265;28;20512;-69
2024/01/07 11:33:49;;;;;;;14.67;11.43;;;-0.40;99.90;;;;;;5016921;28;20470;-69
2024/01/07 11:36:18;;;;;;;13.80;10.33;;;-0.30;99.90;;;;;;5016118;28;20490;-68
2024/01/07 11:38:49;;;;;;;11.93;9.50;;;-0.40;99.90;;;;;;5016932;28;20480;-68
2024/01/07 11:41:17;;;;;;;12.80;9.90;;;-0.50;99.90;;;;;;5022364;28;20474;-69
2024/01/07 11:43:58;;;;;;;10.50;8.53;;;-0.40;99.90;;;;;;5019966;28;20498;-69
2024/01/07 11:46:27;;;;;;;11.73;9.33;;;-0.50;99.90;;;;;;5001248;28;20484;-68
2024/01/07 11:48:58;;;;;;;13.30;9.30;;;-0.50;99.90;;;;;;4998468;28;20860;-69
2024/01/07 11:51:30;;;;;;;9.67;8.43;;;-0.50;99.90;;;;;;4999412;28;20872;-69
2024/01/07 11:54:00;;;;;;;10.17;9.17;;;-0.40;99.90;;;;;;5000943;28;20438;-68
2024/01/07 11:56:28;;;;;;;11.10;8.80;;;-0.20;99.90;;;;;;5003441;28;20446;-69
2024/01/07 11:58:57;;;;;;;11.67;9.47;;;-0.30;99.90;;;;;;5000916;28;20518;-69
2024/01/07 12:01:26;;;;;;;10.70;9.57;;;-0.30;99.90;;;;;;5002957;28;20483;-67
2024/01/07 12:03:53;;;;;;;9.50;8.37;;;-0.40;99.90;;;;;;5005795;28;20501;-69
2024/01/07 12:06:21;;;;;;;11.83;8.40;;;-0.40;99.90;;;;;;5000339;28;20460;-69
2024/01/07 12:08:48;;;;;;;9.37;8.10;;;-0.40;99.90;;;;;;5006755;28;20799;-68
2024/01/07 12:11:17;;;;;;;9.60;8.60;;;-0.30;99.90;;;;;;5002248;28;20483;-68
2024/01/07 12:13:46;;;;;;;13.53;8.47;;;-0.50;99.90;;;;;;5001462;28;20450;-68
2024/01/07 12:16:14;;;;;;;9.43;8.43;;;-0.40;99.90;;;;;;4999933;28;20489;-68
2024/01/07 12:18:43;;;;;;;10.83;8.60;;;-0.40;99.90;;;;;;5000435;28;20447;-69
2024/01/07 12:21:11;;;;;;;10.10;8.70;;;-0.40;99.90;;;;;;4999906;28;20526;-68
2024/01/07 12:23:39;;;;;;;11.57;8.43;;;-0.50;99.90;;;;;;5008149;28;20590;-68
2024/01/07 12:26:10;;;;;;;9.97;8.90;;;-0.50;99.90;;;;;;5001851;28;20515;-68
2024/01/07 12:28:39;;;;;;;12.27;8.17;;;-0.60;99.90;;;;;;5002275;28;20905;-68
2024/01/07 12:31:07;;;;;;;10.50;8.30;;;-0.80;99.90;;;;;;5001442;28;20492;-68
2024/01/07 12:33:35;;;;;;;11.60;9.00;;;-0.70;99.90;;;;;;5001886;28;20470;-68
2024/01/07 12:36:03;;;;;;;9.57;8.57;;;-0.90;99.90;;;;;;5001517;28;20547;-68
2024/01/07 12:38:31;;;;;;;14.70;9.57;;;-0.80;99.90;;;;;;4998268;28;20460;-68
2024/01/07 12:40:58;;;;;;;10.90;8.80;;;-0.80;99.90;;;;;;4999891;28;20462;-68